Auriesville, New York
Current Conditions -  °F | °C
As of 2:55 AM on Friday 24 Oct 2014 (Local Time) from KNY0 Reporting Station
Overcast Overcast  
Wind Chill: 39°   Ceiling: 3200
Heat Index: 43°   Visibility: 10mi
Dew Point: 42°   Wind: 6mph
Humidity: 95%   Direction: 260°W
Pressure: 29.83"   Gusts: NA
Location:  42.93°N, 74.32°W
Report Text: KNY0 240655Z AUTO 26005KT 10SM SCT026 OVC032 06/05 A2983 RMK AO2 T00600053
Loading
Personal Weather Stations






























Interactive Weather Map
Tropical Storm Tracking
New forecast layout! Learn more

10-Day Weather Forecast

Advertisements
Track Severe Weather on mobile